Airfield :
LOGIN :

Register | Disclaimer

   EN    FR    IT 

 










Legend :    VFR   Marginal VFR   IFR   Intensive IFR   Very Intensive IFR
Visi :
Ceiling :
>= 8 km
>= 3000ft
5 to 8 km
1000 to 3000 ft
1500m to 5 km
500 to 1000 ft
800 to 1500m
200 to 500 ft
< 800m
< 200 ft
Symbols :   Thunderstorms  Fog  Heavy snow  Heavy precipitations  Wind > 20 kt
SIGMETs :     Misc.  Thunderstorms  Icing  Turbulence  Mountain Waves  Volcanic Ashes






- Airport Elevation : 390 ft
- IATA code : NQY


EGHQ - Newquay

CURRENT METAR :
  • 120620Z AUTO 23018KT 9999 BKN006/// 10/09 Q0992 RERA

EXPIRED METARs :
  • 120550Z AUTO 22016KT 9999 -DZ BKN004/// 09/09 Q0993
  • 120520Z AUTO 19010KT 5000 -DZ BKN005/// 08/08 Q0994
  • 120450Z AUTO 19011KT 9999 RA OVC029/// 08/07 Q0995
  • 120420Z AUTO 18012KT 9000 RA BKN008/// BKN040/// 08/07 Q0996
  • 120350Z AUTO 20012KT 9999 DZ OVC021/// 07/07 Q0997

TAF TAF EGHQ
Valid from the 12 at 06:00 until the 12 at 15:00 UTC


120459Z 1206/1215 19010KT 9999 FEW008 SCT025
TEMPO 1206/1211 6000 RA BKN008
PROB40
TEMPO 1206/1211 2000 RADZ +RA BKN004
PROB30
TEMPO 1206/1211 21017G27KT
BECMG 1209/1212 26012KT
TEMPO 1211/1215 27017G27KT 6000 SHRA BKN008
PROB30
TEMPO 1212/1215 3000 +SHRA SHGS BKN004 BKN012CB



MET'MAP, your aeronautical weather chart ! - Copyright ORBIFLY December 2007 - Disclaimer

ORBIFLY MET'MAP TEAM :

Programming & Development : Alexandra Zaïnal
Concept & original design : Baudouin d'Aumeries
Assistance for programming : Marc-Olivier Méhu
Technical & hardware support : Manuel Goepfert

Contact : metmap@orbifly.com




SOURCES & CREDITS :

   NOAA